createdAt,value
2018-03-22T00:02:02.744Z," 4.52"
2018-03-22T00:06:59.649Z," 4.56"
2018-03-22T00:11:55.164Z," 4.48"
2018-03-22T00:16:50.840Z," 4.40"
2018-03-22T00:21:46.201Z," 4.50"
2018-03-22T00:26:42.500Z," 4.55"
2018-03-22T00:31:37.888Z," 4.42"
2018-03-22T00:36:38.991Z," 4.55"
2018-03-22T00:41:33.526Z," 4.49"
2018-03-22T00:46:29.289Z," 4.40"
2018-03-22T00:51:25.231Z," 4.58"
2018-03-22T00:56:25.811Z," 4.50"
2018-03-22T01:01:21.207Z," 4.53"
2018-03-22T01:06:17.907Z," 4.48"
2018-03-22T01:11:14.430Z," 4.62"
2018-03-22T01:16:09.408Z," 4.63"
2018-03-22T01:21:05.147Z," 4.67"
2018-03-22T01:26:01.602Z," 4.67"
2018-03-22T01:31:03.075Z," 4.63"
2018-03-22T01:35:58.771Z," 4.63"
2018-03-22T01:40:54.058Z," 4.59"
2018-03-22T01:45:50.692Z," 4.62"
2018-03-22T01:50:46.344Z," 4.56"
2018-03-22T01:55:41.966Z," 4.68"
2018-03-22T02:00:37.710Z," 4.60"
2018-03-22T02:05:33.449Z," 4.53"
2018-03-22T02:10:34.138Z," 4.59"
2018-03-22T02:15:28.576Z," 4.50"
2018-03-22T02:20:24.215Z," 4.41"
2018-03-22T02:25:24.646Z," 4.53"
2018-03-22T02:30:19.269Z," 4.53"
2018-03-22T02:35:17.076Z," 4.71"
2018-03-22T02:40:12.758Z," 4.70"
2018-03-22T02:45:13.529Z," 4.71"
2018-03-22T02:50:08.199Z," 4.86"
2018-03-22T02:55:04.072Z," 4.84"
2018-03-22T03:00:01.879Z," 4.73"
2018-03-22T03:05:01.881Z," 4.74"
2018-03-22T03:09:57.814Z," 4.71"
2018-03-22T03:14:57.176Z," 4.68"
2018-03-22T03:19:53.732Z," 4.68"
2018-03-22T03:24:50.081Z," 4.73"
2018-03-22T03:29:46.520Z," 4.67"
2018-03-22T03:34:42.611Z," 4.59"
2018-03-22T03:39:40.248Z," 4.63"
2018-03-22T03:44:39.610Z," 4.56"
2018-03-22T03:49:34.527Z," 4.59"
2018-03-22T03:54:30.080Z," 4.53"
2018-03-22T03:59:27.427Z," 4.41"
2018-03-22T04:04:23.851Z," 4.34"
2018-03-22T04:09:23.112Z," 4.32"
2018-03-22T04:14:17.885Z," 4.32"
2018-03-22T04:19:13.601Z," 4.24"
2018-03-22T04:24:13.985Z," 4.23"
2018-03-22T04:29:08.956Z," 4.26"
2018-03-22T04:34:05.724Z," 4.22"
2018-03-22T04:39:02.282Z," 4.19"
2018-03-22T04:43:58.781Z," 4.14"
2018-03-22T04:48:55.840Z," 4.22"
2018-03-22T04:53:52.115Z," 4.06"
2018-03-22T04:58:52.717Z," 4.12"
2018-03-22T05:03:47.192Z," 4.23"
2018-03-22T05:08:43.850Z," 4.05"
2018-03-22T05:13:43.050Z," 4.02"
2018-03-22T05:18:43.527Z," 4.01"
2018-03-22T05:23:42.007Z," 4.16"
2018-03-22T05:28:37.221Z," 4.05"
2018-03-22T05:33:32.824Z," 3.95"
2018-03-22T05:38:32.196Z," 4.01"
2018-03-22T05:43:28.297Z," 3.92"
2018-03-22T05:48:23.986Z," 3.81"
2018-03-22T05:53:23.508Z," 3.81"
2018-03-22T05:58:22.139Z," 3.69"
2018-03-22T06:03:21.873Z," 3.88"
2018-03-22T06:08:16.641Z," 3.88"
2018-03-22T06:13:12.305Z," 3.81"
2018-03-22T06:18:08.933Z," 3.95"
2018-03-22T06:23:05.348Z," 3.88"
2018-03-22T06:28:01.773Z," 3.91"
2018-03-22T06:32:58.067Z," 3.98"
2018-03-22T06:37:53.794Z," 3.86"
2018-03-22T06:42:53.517Z," 3.94"
2018-03-22T06:47:49.709Z," 3.95"
2018-03-22T06:52:46.031Z," 4.05"
2018-03-22T06:57:41.592Z," 4.23"
2018-03-22T07:02:41.348Z," 4.16"
2018-03-22T07:07:39.929Z," 4.05"
2018-03-22T07:12:39.574Z," 3.99"
2018-03-22T07:17:34.033Z," 3.94"
2018-03-22T07:22:29.611Z," 4.05"
2018-03-22T07:27:25.403Z," 4.06"
2018-03-22T07:32:21.320Z," 4.02"
2018-03-22T07:37:20.936Z," 3.88"
2018-03-22T07:42:19.576Z," 3.88"
2018-03-22T07:47:15.186Z," 3.84"
2018-03-22T07:52:15.581Z," 3.95"
2018-03-22T07:57:10.393Z," 3.99"
2018-03-22T08:02:10.332Z," 3.99"
2018-03-22T08:07:05.158Z," 4.02"
2018-03-22T08:12:01.780Z," 3.99"
2018-03-22T08:16:58.403Z," 3.99"
2018-03-22T08:21:57.860Z," 4.13"
2018-03-22T08:26:52.861Z," 4.06"
2018-03-22T08:31:48.996Z," 4.13"
2018-03-22T08:36:45.799Z," 4.23"
2018-03-22T08:41:41.472Z," 4.35"
2018-03-22T08:46:41.150Z," 4.38"
2018-03-22T08:51:39.916Z," 4.50"
2018-03-22T08:56:35.858Z," 4.48"
2018-03-22T09:01:31.048Z," 4.56"
2018-03-22T09:06:26.874Z," 4.50"
2018-03-22T09:11:26.707Z," 4.58"
2018-03-22T09:16:26.783Z," 4.59"
2018-03-22T09:21:22.381Z," 4.67"
2018-03-22T09:26:19.250Z," 4.74"
2018-03-22T09:31:15.004Z," 4.87"
2018-03-22T09:36:11.144Z," 5.10"
2018-03-22T09:41:12.775Z," 5.15"
2018-03-22T09:46:11.424Z," 5.12"
2018-03-22T09:51:06.388Z," 5.14"
2018-03-22T09:56:02.879Z," 5.14"
2018-03-22T10:01:03.323Z," 5.23"
2018-03-22T10:05:58.200Z," 5.26"
2018-03-22T10:10:58.759Z," 5.46"
2018-03-22T10:15:53.780Z," 5.57"
2018-03-22T10:20:54.960Z," 5.76"
2018-03-22T10:25:49.678Z," 5.91"
2018-03-22T10:30:46.533Z," 6.12"
2018-03-22T10:35:46.394Z," 6.41"
2018-03-22T10:40:42.615Z," 6.49"
2018-03-22T10:45:42.146Z," 6.64"
2018-03-22T10:50:37.197Z," 6.78"
2018-03-22T10:55:37.241Z," 6.92"
2018-03-22T11:00:37.325Z," 7.00"
2018-03-22T11:05:35.082Z," 7.35"
2018-03-22T11:10:30.288Z," 7.82"
2018-03-22T11:15:31.498Z," 8.82"
2018-03-22T11:20:31.247Z," 9.73"
2018-03-22T11:25:26.561Z," 9.82"
2018-03-22T11:30:22.009Z," 9.39"
2018-03-22T11:35:17.044Z," 8.81"
2018-03-22T11:40:13.077Z," 8.55"
2018-03-22T11:45:08.207Z," 8.30"
2018-03-22T11:50:04.381Z," 8.16"
2018-03-22T11:54:59.619Z," 8.23"
2018-03-22T11:59:55.401Z," 8.12"
2018-03-22T12:04:51.001Z," 8.01"
2018-03-22T12:09:46.267Z," 8.00"
2018-03-22T12:14:45.928Z," 7.88"
2018-03-22T12:19:40.825Z," 7.80"
2018-03-22T12:24:37.668Z," 8.06"
2018-03-22T12:29:39.030Z," 8.28"
2018-03-22T12:34:36.574Z," 8.89"
2018-03-22T12:39:32.512Z," 9.23"
2018-03-22T12:44:29.483Z," 9.25"
2018-03-22T12:49:29.960Z," 9.08"
2018-03-22T12:54:29.819Z," 8.94"
2018-03-22T12:59:24.541Z," 8.76"
2018-03-22T13:04:20.210Z," 8.69"
2018-03-22T13:09:19.477Z," 8.63"
2018-03-22T13:14:15.602Z," 8.78"
2018-03-22T13:19:15.736Z," 9.04"
2018-03-22T13:24:11.800Z," 8.99"
2018-03-22T13:29:08.872Z," 8.87"
2018-03-22T13:34:09.218Z," 8.64"
2018-03-22T13:39:05.424Z," 8.42"
2018-03-22T13:44:01.905Z," 8.63"
2018-03-22T13:48:57.370Z," 8.53"
2018-03-22T13:53:52.795Z," 8.36"
2018-03-22T13:58:48.186Z," 8.38"
2018-03-22T14:03:47.937Z," 8.33"
2018-03-22T14:08:47.670Z," 8.44"
2018-03-22T14:13:42.482Z," 8.36"
2018-03-22T14:18:37.957Z," 8.30"
2018-03-22T14:23:37.551Z," 8.23"
2018-03-22T14:28:36.910Z," 8.30"
2018-03-22T14:33:36.658Z," 8.33"
2018-03-22T14:38:31.137Z," 8.27"
2018-03-22T14:43:30.831Z," 8.31"
2018-03-22T14:48:25.574Z," 8.31"
2018-03-22T14:53:26.367Z," 8.31"
2018-03-22T14:58:24.851Z," 8.34"
2018-03-22T15:03:23.641Z," 8.27"
2018-03-22T15:08:18.706Z," 8.33"
2018-03-22T15:13:18.681Z," 8.34"
2018-03-22T15:18:13.520Z," 8.31"
2018-03-22T15:23:10.019Z," 8.33"
2018-03-22T15:28:06.387Z," 8.28"
2018-03-22T15:33:01.903Z," 8.34"
2018-03-22T15:38:02.478Z," 8.28"
2018-03-22T15:42:57.408Z," 8.23"
2018-03-22T15:47:54.145Z," 8.18"
2018-03-22T15:52:54.533Z," 8.34"
2018-03-22T15:57:53.038Z," 8.13"
2018-03-22T16:02:47.848Z," 8.23"
2018-03-22T16:07:43.503Z," 8.12"
2018-03-22T16:12:44.177Z," 8.08"
2018-03-22T16:17:38.891Z," 8.16"
2018-03-22T16:22:35.028Z," 8.10"
2018-03-22T16:27:30.703Z," 8.12"
2018-03-22T16:32:27.370Z," 8.27"
2018-03-22T16:37:23.897Z," 8.18"
2018-03-22T16:42:19.257Z," 8.31"
2018-03-22T16:47:15.072Z," 8.19"
2018-03-22T16:52:10.541Z," 8.16"
2018-03-22T16:57:06.239Z," 8.23"
2018-03-22T17:02:01.965Z," 8.26"
2018-03-22T17:06:57.537Z," 8.10"
2018-03-22T17:11:57.140Z," 8.12"
2018-03-22T17:16:56.660Z," 7.95"
2018-03-22T17:21:52.027Z," 7.98"
2018-03-22T17:26:51.296Z," 7.85"
2018-03-22T17:31:47.824Z," 7.90"
2018-03-22T17:36:47.058Z," 7.87"
2018-03-22T17:41:41.873Z," 7.82"
2018-03-22T17:46:41.432Z," 7.79"
2018-03-22T17:51:41.755Z," 7.63"
2018-03-22T17:56:36.271Z," 7.80"
2018-03-22T18:01:36.956Z," 7.69"
2018-03-22T18:06:31.693Z," 7.70"
2018-03-22T18:11:31.298Z," 7.66"
2018-03-22T18:16:29.997Z," 7.70"
2018-03-22T18:21:25.076Z," 7.61"
2018-03-22T18:26:20.678Z," 7.67"
2018-03-22T18:31:20.253Z," 7.63"
2018-03-22T18:36:19.157Z," 7.60"
2018-03-22T18:41:18.990Z," 7.57"
2018-03-22T18:46:18.638Z," 7.57"
2018-03-22T18:51:17.302Z," 7.57"
2018-03-22T18:56:12.206Z," 7.58"
2018-03-22T19:01:11.882Z," 7.60"
2018-03-22T19:06:08.039Z," 7.58"
2018-03-22T19:11:03.523Z," 7.56"
2018-03-22T19:16:00.234Z," 7.60"
2018-03-22T19:21:00.752Z," 7.61"
2018-03-22T19:26:00.916Z," 7.63"
2018-03-22T19:30:56.482Z," 7.60"
2018-03-22T19:35:52.842Z," 7.60"
2018-03-22T19:40:48.231Z," 7.56"
2018-03-22T19:45:44.497Z," 7.56"
2018-03-22T19:50:41.266Z," 7.53"
2018-03-22T19:55:36.579Z," 7.40"
2018-03-22T20:00:32.907Z," 7.38"
2018-03-22T20:05:32.950Z," 7.39"
2018-03-22T20:10:28.839Z," 7.35"
2018-03-22T20:15:24.332Z," 7.38"
2018-03-22T20:20:23.972Z," 7.32"
2018-03-22T20:25:18.663Z," 7.35"
2018-03-22T20:30:15.974Z," 7.32"
2018-03-22T20:35:15.342Z," 7.31"
2018-03-22T20:40:09.847Z," 7.29"
2018-03-22T20:45:05.666Z," 7.25"
2018-03-22T20:50:01.269Z," 7.28"
2018-03-22T20:54:58.265Z," 7.29"
2018-03-22T20:59:54.364Z," 7.32"
2018-03-22T21:04:55.072Z," 7.31"
2018-03-22T21:09:54.494Z," 7.23"
2018-03-22T21:14:50.514Z," 7.29"
2018-03-22T21:19:50.365Z," 7.25"
2018-03-22T21:24:50.023Z," 7.20"
2018-03-22T21:29:44.711Z," 7.25"
2018-03-22T21:34:45.414Z," 7.24"
2018-03-22T21:39:44.055Z," 7.17"
2018-03-22T21:44:42.953Z," 7.18"
2018-03-22T21:49:42.705Z," 7.20"
2018-03-22T21:54:41.285Z," 7.14"
2018-03-22T21:59:40.479Z," 7.15"
2018-03-22T22:04:39.237Z," 7.21"
2018-03-22T22:09:34.122Z," 7.21"
2018-03-22T22:14:29.855Z," 7.14"
2018-03-22T22:19:25.096Z," 7.06"
2018-03-22T22:24:25.452Z," 7.10"
2018-03-22T22:29:21.440Z," 6.97"
2018-03-22T22:34:20.723Z," 6.99"
2018-03-22T22:39:19.372Z," 7.00"
2018-03-22T22:44:13.972Z," 6.96"
2018-03-22T22:49:10.971Z," 6.96"
2018-03-22T22:54:06.888Z," 6.87"
2018-03-22T22:59:03.740Z," 6.84"
2018-03-22T23:04:03.156Z," 6.72"
2018-03-22T23:08:59.048Z," 6.70"
2018-03-22T23:13:55.983Z," 6.74"
2018-03-22T23:18:51.502Z," 6.78"
2018-03-22T23:23:47.278Z," 6.66"
2018-03-22T23:28:46.601Z," 6.66"
2018-03-22T23:33:41.820Z," 6.66"
2018-03-22T23:38:37.482Z," 6.74"
2018-03-22T23:43:38.299Z," 6.70"
2018-03-22T23:48:36.834Z," 6.66"
2018-03-22T23:53:31.829Z," 6.63"
2018-03-22T23:58:28.595Z," 6.64"
